Time;durP1;ratioP1;P1;durP2;ratioP2;P2;SDS_P1;SDS_P2;PMS_P1;PMS_P2;Temp;Humidity;BMP_temperature;BMP_pressure;BME280_temperature;BME280_humidity;BME280_pressure;Samples;Min_cycle;Max_cycle;Signal;HPM_P1;HPM_P2
2023/03/14 00:00:19;;;;;;;7.10;4.65;;;;;;;11.23;40.96;98779.00;4417413;32;34908;-66
2023/03/14 00:02:52;;;;;;;9.43;4.15;;;;;;;10.89;41.27;98774.09;4410719;32;32442;-63
2023/03/14 00:05:20;;;;;;;10.93;5.30;;;;;;;10.76;41.91;98765.50;4404063;32;33104;-66
2023/03/14 00:07:48;;;;;;;8.93;5.45;;;;;;;10.20;43.29;98753.53;4406971;32;33772;-63
2023/03/14 00:10:15;;;;;;;7.57;4.60;;;;;;;10.11;43.49;98757.00;4416108;32;33893;-65
2023/03/14 00:12:42;;;;;;;9.82;4.97;;;;;;;10.41;43.14;98745.44;4417849;32;33763;-64
2023/03/14 00:15:11;;;;;;;7.90;3.95;;;;;;;10.82;42.51;98746.19;4408432;32;33485;-64
2023/03/14 00:17:39;;;;;;;11.48;4.45;;;;;;;10.80;42.29;98745.50;4410972;32;33737;-65
2023/03/14 00:20:11;;;;;;;8.63;4.72;;;;;;;10.55;42.75;98733.50;4417420;32;32501;-67
2023/03/14 00:22:39;;;;;;;8.35;5.32;;;;;;;11.48;40.80;98732.03;4417799;32;34512;-63
2023/03/14 00:25:08;;;;;;;8.23;5.50;;;;;;;10.70;42.67;98724.06;4404453;32;33016;-65
2023/03/14 00:27:36;;;;;;;9.32;4.90;;;;;;;11.11;41.71;98730.97;4413609;32;33788;-66
2023/03/14 00:30:07;;;;;;;9.57;4.93;;;;;;;11.71;40.57;98724.47;4417102;32;32986;-66
2023/03/14 00:32:35;;;;;;;7.35;4.50;;;;;;;11.80;40.04;98728.94;4415067;32;33228;-66
2023/03/14 00:35:04;;;;;;;7.53;5.43;;;;;;;11.92;39.91;98709.03;4416338;32;33563;-65
2023/03/14 00:37:31;;;;;;;9.80;4.03;;;;;;;11.51;40.69;98715.66;4408692;32;33819;-65
2023/03/14 00:39:58;;;;;;;9.77;4.30;;;;;;;11.53;40.36;98711.84;4415724;32;34893;-66
2023/03/14 00:42:27;;;;;;;9.10;5.95;;;;;;;11.81;40.13;98693.97;4418228;32;33056;-66
2023/03/14 00:44:54;;;;;;;8.85;4.45;;;;;;;11.82;40.05;98690.28;4415139;32;33351;-64
2023/03/14 00:47:21;;;;;;;7.68;5.05;;;;;;;11.15;41.35;98702.91;4415482;32;32579;-65
2023/03/14 00:49:49;;;;;;;9.07;4.37;;;;;;;10.89;42.12;98702.66;4417856;32;34296;-62
2023/03/14 00:52:18;;;;;;;8.13;4.87;;;;;;;11.47;41.19;98698.19;4417179;32;32544;-62
2023/03/14 00:54:46;;;;;;;8.65;5.45;;;;;;;11.61;40.98;98695.84;4417182;32;33109;-64
2023/03/14 00:57:14;;;;;;;8.55;5.50;;;;;;;11.71;40.45;98693.13;4417247;32;34689;-64
2023/03/14 00:59:41;;;;;;;7.97;4.87;;;;;;;11.38;40.81;98690.00;4418737;32;35223;-63
2023/03/14 01:02:09;;;;;;;10.63;5.28;;;;;;;11.54;41.01;98697.44;4411773;32;32532;-65
2023/03/14 01:04:39;;;;;;;9.77;5.80;;;;;;;12.06;39.79;98697.81;4404414;32;34219;-65
2023/03/14 01:07:06;;;;;;;10.30;5.15;;;;;;;11.59;40.69;98691.66;4410421;32;33338;-63
2023/03/14 01:09:34;;;;;;;6.43;4.37;;;;;;;10.76;42.48;98688.72;4404859;32;35774;-65
2023/03/14 01:12:02;;;;;;;8.88;4.43;;;;;;;11.12;41.78;98683.59;4412841;32;34980;-63
2023/03/14 01:14:29;;;;;;;8.07;4.28;;;;;;;11.47;40.95;98677.59;4418797;32;34213;-64
2023/03/14 01:17:00;;;;;;;11.35;4.80;;;;;;;11.12;41.57;98683.59;4413490;32;33771;-64
2023/03/14 01:19:28;;;;;;;10.25;5.30;;;;;;;11.17;41.78;98674.16;4418946;32;32644;-63
2023/03/14 01:21:56;;;;;;;8.63;4.15;;;;;;;11.76;40.36;98669.44;4418753;32;35979;-64
2023/03/14 01:24:23;;;;;;;7.30;4.10;;;;;;;11.92;40.06;98662.63;4406469;32;33566;-64
2023/03/14 01:26:51;;;;;;;13.38;5.60;;;;;;;11.73;40.62;98656.31;4415108;32;33607;-66
2023/03/14 01:29:18;;;;;;;8.35;4.43;;;;;;;11.27;41.36;98650.03;4421731;32;32806;-64
2023/03/14 01:31:46;;;;;;;8.57;5.10;;;;;;;11.30;41.02;98639.03;4416652;32;34377;-64
2023/03/14 01:34:14;;;;;;;4.65;3.45;;;;;;;11.10;41.74;98616.78;4414935;32;33680;-65
2023/03/14 01:36:41;;;;;;;6.57;3.97;;;;;;;11.09;41.73;98616.94;4413893;32;32407;-64
2023/03/14 01:39:09;;;;;;;6.53;4.28;;;;;;;10.62;43.09;98619.56;4421166;32;35112;-65
2023/03/14 01:41:37;;;;;;;5.80;4.12;;;;;;;10.76;42.46;98621.81;4419523;32;33810;-63
2023/03/14 01:44:05;;;;;;;9.52;4.85;;;;;;;11.28;41.31;98614.19;4421112;32;32213;-65
2023/03/14 01:46:41;;;;;;;10.05;5.87;;;;;;;10.44;44.11;98608.75;4415682;32;34064;-63
2023/03/14 01:49:32;;;;;;;6.50;4.18;;;;;;;11.03;42.61;98588.91;4419803;32;34898;-64
2023/03/14 01:52:04;;;;;;;11.02;4.32;;;;;;;11.12;42.51;98585.34;4417444;32;33840;-64
2023/03/14 01:55:08;;;;;;;9.32;5.60;;;;;;;10.84;42.62;98583.59;4393013;32;33324;-65
2023/03/14 01:57:44;;;;;;;5.87;4.25;;;;;;;10.96;43.08;98580.63;4416785;32;33487;-64
2023/03/14 02:00:15;;;;;;;8.23;4.40;;;;;;;11.15;42.30;98568.16;4402912;32;34916;-66
2023/03/14 02:02:54;;;;;;;9.00;5.80;;;;;;;11.27;41.59;98580.38;4417237;32;34876;-64
2023/03/14 02:05:25;;;;;;;9.98;5.32;;;;;;;11.14;41.88;98570.00;4403547;32;32128;-63
2023/03/14 02:07:59;;;;;;;10.15;6.53;;;;;;;11.23;42.34;98575.44;4416709;32;33609;-66
2023/03/14 02:10:29;;;;;;;8.80;4.93;;;;;;;11.29;41.83;98564.97;4419182;32;34022;-65
2023/03/14 02:13:00;;;;;;;14.65;5.37;;;;;;;10.64;43.52;98556.06;4406000;32;34358;-63
2023/03/14 02:15:27;;;;;;;11.50;5.43;;;;;;;11.23;41.92;98560.22;4406006;32;33521;-63
2023/03/14 02:17:56;;;;;;;6.87;4.47;;;;;;;11.28;42.05;98562.47;4416611;32;33864;-61
2023/03/14 02:20:35;;;;;;;7.70;5.75;;;;;;;10.44;43.74;98561.44;4418906;32;33536;-64
2023/03/14 02:23:03;;;;;;;5.07;3.65;;;;;;;10.39;43.82;98549.47;4404674;32;34020;-64
2023/03/14 02:25:46;;;;;;;7.40;4.22;;;;;;;10.55;43.54;98533.66;4406236;32;33632;-64
2023/03/14 02:28:14;;;;;;;9.07;4.87;;;;;;;10.63;43.61;98541.84;4404157;32;32702;-66
2023/03/14 02:30:42;;;;;;;7.30;3.97;;;;;;;10.53;43.91;98532.13;4405234;32;33798;-64
2023/03/14 02:33:16;;;;;;;7.90;4.50;;;;;;;9.88;45.64;98538.03;4416964;32;33757;-63
2023/03/14 02:35:48;;;;;;;8.15;3.97;;;;;;;9.65;45.89;98534.78;4417925;32;33064;-63
2023/03/14 02:38:40;;;;;;;8.35;5.18;;;;;;;10.81;43.71;98517.81;4417987;32;34633;-63
2023/03/14 02:41:09;;;;;;;8.10;4.30;;;;;;;10.08;44.64;98532.69;4404084;32;34067;-64
2023/03/14 02:43:37;;;;;;;7.78;4.18;;;;;;;11.04;43.00;98510.25;4414990;32;34160;-64
2023/03/14 02:46:10;;;;;;;5.12;3.95;;;;;;;11.00;43.30;98534.81;4420035;32;33480;-64
2023/03/14 02:49:12;;;;;;;11.35;4.05;;;;;;;11.20;42.73;98523.00;4403994;32;33916;-65
2023/03/14 02:51:40;;;;;;;6.12;5.07;;;;;;;10.64;44.45;98524.78;4377981;32;35200;-63
2023/03/14 02:54:08;;;;;;;9.48;4.90;;;;;;;10.70;44.24;98509.97;4416406;32;33793;-64
2023/03/14 02:56:36;;;;;;;9.25;5.15;;;;;;;11.09;43.36;98517.88;4418721;32;32918;-66
2023/03/14 02:59:05;;;;;;;14.25;5.12;;;;;;;11.13;43.56;98521.94;4412350;32;32618;-64
2023/03/14 03:01:33;;;;;;;7.35;3.87;;;;;;;11.13;43.06;98512.06;4415678;32;34308;-63
2023/03/14 03:04:01;;;;;;;10.13;5.53;;;;;;;11.33;42.57;98502.09;4411065;32;34803;-65
2023/03/14 03:06:28;;;;;;;11.48;6.35;;;;;;;11.33;42.73;98499.44;4417263;32;34242;-63
2023/03/14 03:08:56;;;;;;;7.85;5.85;;;;;;;11.08;43.26;98494.78;4413307;32;33381;-65
2023/03/14 03:11:24;;;;;;;9.70;4.70;;;;;;;10.49;44.49;98491.44;4417048;32;35089;-63
2023/03/14 03:13:51;;;;;;;6.97;4.78;;;;;;;10.52;44.83;98488.47;4415681;32;35033;-66
2023/03/14 03:16:19;;;;;;;4.90;3.70;;;;;;;10.92;43.93;98485.53;4418117;32;33720;-66
2023/03/14 03:18:46;;;;;;;7.55;4.40;;;;;;;10.49;44.55;98470.03;4419268;32;33959;-65
2023/03/14 03:21:14;;;;;;;8.32;4.82;;;;;;;10.07;45.97;98485.56;4420133;32;34013;-63
2023/03/14 03:23:42;;;;;;;9.57;4.32;;;;;;;10.49;45.16;98470.88;4417705;32;33531;-64
2023/03/14 03:26:11;;;;;;;8.48;5.15;;;;;;;9.98;47.09;98481.91;4418349;32;33426;-63
2023/03/14 03:28:38;;;;;;;11.38;4.78;;;;;;;10.40;46.02;98465.56;4418762;32;33912;-63
2023/03/14 03:31:08;;;;;;;7.55;4.03;;;;;;;9.87;46.76;98458.03;4417149;32;33972;-65
2023/03/14 03:33:37;;;;;;;6.87;4.25;;;;;;;10.61;45.37;98463.53;4416569;32;33812;-63
2023/03/14 03:36:05;;;;;;;7.00;4.43;;;;;;;11.03;44.63;98449.69;4413622;32;33272;-64
2023/03/14 03:38:33;;;;;;;7.45;5.03;;;;;;;10.95;44.46;98446.91;4409432;32;33972;-66
2023/03/14 03:41:07;;;;;;;4.65;3.40;;;;;;;11.40;43.83;98456.81;4409326;32;35167;-67
2023/03/14 03:43:35;;;;;;;5.70;4.90;;;;;;;10.79;44.50;98460.94;4419040;32;33945;-67
2023/03/14 03:46:04;;;;;;;8.73;4.90;;;;;;;10.82;44.52;98454.41;4417806;32;33224;-64
2023/03/14 03:48:32;;;;;;;5.07;3.67;;;;;;;10.65;45.56;98446.19;4417585;32;35371;-63
2023/03/14 03:51:01;;;;;;;7.43;3.40;;;;;;;11.20;44.06;98456.06;4402927;32;32998;-66
2023/03/14 03:53:29;;;;;;;7.95;4.85;;;;;;;10.32;45.93;98460.09;4418760;32;33677;-64
2023/03/14 03:56:01;;;;;;;7.35;4.12;;;;;;;10.55;45.27;98461.44;4417969;32;33476;-63
2023/03/14 03:58:29;;;;;;;5.47;4.10;;;;;;;11.58;43.28;98463.00;4416094;32;34727;-65
2023/03/14 04:00:56;;;;;;;6.70;4.07;;;;;;;11.12;44.21;98472.06;4417791;32;33583;-67
2023/03/14 04:03:25;;;;;;;7.82;5.00;;;;;;;11.90;42.64;98456.28;4415702;32;33943;-66
2023/03/14 04:06:05;;;;;;;8.60;5.28;;;;;;;11.39;43.85;98463.97;4409366;32;35250;-64
2023/03/14 04:08:33;;;;;;;16.62;3.92;;;;;;;11.92;42.53;98470.41;4415812;32;33590;-64
2023/03/14 04:11:01;;;;;;;7.60;4.87;;;;;;;11.03;44.21;98473.78;4417255;32;34085;-63
2023/03/14 04:13:29;;;;;;;10.73;4.95;;;;;;;10.09;46.45;98473.75;4419506;32;33691;-67
2023/03/14 04:15:57;;;;;;;9.38;3.92;;;;;;;10.96;44.88;98465.50;4416758;32;34474;-65
2023/03/14 04:18:26;;;;;;;11.23;5.55;;;;;;;10.40;45.87;98461.06;4418322;32;34845;-66
2023/03/14 04:20:55;;;;;;;9.82;5.55;;;;;;;10.07;46.63;98450.81;4416765;32;33960;-66
2023/03/14 04:23:24;;;;;;;9.32;4.32;;;;;;;9.51;48.75;98466.59;4409468;32;32539;-64
2023/03/14 04:25:52;;;;;;;11.12;5.75;;;;;;;10.12;47.38;98478.81;4412496;32;33274;-64
2023/03/14 04:28:20;;;;;;;7.82;4.93;;;;;;;10.16;46.81;98479.38;4417835;32;33436;-65
2023/03/14 04:30:48;;;;;;;8.07;4.57;;;;;;;10.95;44.98;98474.53;4418483;32;34172;-64
2023/03/14 04:33:19;;;;;;;6.50;4.20;;;;;;;11.05;45.30;98469.13;4415877;32;33762;-66
2023/03/14 04:35:47;;;;;;;9.18;4.55;;;;;;;11.08;44.92;98465.31;4413452;32;33353;-64
2023/03/14 04:38:15;;;;;;;12.35;4.93;;;;;;;11.23;44.48;98471.84;4415110;32;33906;-65
2023/03/14 04:40:43;;;;;;;7.75;4.97;;;;;;;10.55;45.76;98461.44;4417206;32;33830;-67
2023/03/14 04:43:12;;;;;;;8.05;4.87;;;;;;;10.39;46.21;98462.03;4416299;32;34720;-66
2023/03/14 04:45:42;;;;;;;12.65;6.22;;;;;;;10.76;45.54;98460.41;4414429;32;33290;-64
2023/03/14 04:48:09;;;;;;;10.57;4.03;;;;;;;10.00;47.38;98459.41;4416822;32;35254;-65
2023/03/14 04:50:37;;;;;;;13.48;6.65;;;;;;;10.54;46.28;98456.25;4417149;32;34926;-64
2023/03/14 04:53:06;;;;;;;11.23;5.85;;;;;;;10.20;47.01;98454.03;4417010;32;34264;-63
2023/03/14 04:55:34;;;;;;;23.52;5.15;;;;;;;10.62;46.00;98449.16;4410322;32;34648;-65
2023/03/14 04:58:02;;;;;;;6.32;4.20;;;;;;;10.33;46.71;98459.09;4417574;32;33499;-66
2023/03/14 05:00:30;;;;;;;12.30;5.10;;;;;;;10.92;45.54;98460.59;4417546;32;34978;-65
2023/03/14 05:02:57;;;;;;;6.70;4.53;;;;;;;10.92;45.13;98449.91;4417512;32;35074;-66
2023/03/14 05:05:25;;;;;;;6.50;4.40;;;;;;;11.09;44.99;98465.16;4419325;32;33011;-65
2023/03/14 05:07:54;;;;;;;7.50;3.67;;;;;;;11.17;44.69;98459.03;4417771;32;33341;-65
2023/03/14 05:10:22;;;;;;;5.65;4.05;;;;;;;11.59;43.92;98450.47;4418139;32;35253;-64
2023/03/14 05:12:51;;;;;;;17.50;4.70;;;;;;;11.30;44.67;98453.31;4417656;32;34603;-64
2023/03/14 05:15:19;;;;;;;7.95;4.55;;;;;;;11.37;44.28;98441.03;4420877;32;34541;-64
2023/03/14 05:17:48;;;;;;;7.35;3.37;;;;;;;11.56;44.08;98450.78;4418594;32;34853;-64
2023/03/14 05:20:19;;;;;;;5.78;4.43;;;;;;;11.43;43.84;98445.78;4417025;32;33713;-64
2023/03/14 05:22:48;;;;;;;10.02;4.37;;;;;;;11.10;45.35;98436.53;4418274;32;35106;-64
2023/03/14 05:25:16;;;;;;;9.45;4.12;;;;;;;10.67;45.77;98440.69;4421186;32;32618;-66
2023/03/14 05:27:45;;;;;;;7.03;4.25;;;;;;;11.12;44.95;98439.91;4416047;32;33886;-66
2023/03/14 05:30:14;;;;;;;7.32;4.25;;;;;;;11.28;44.56;98440.09;4418681;32;33854;-64
2023/03/14 05:32:41;;;;;;;8.35;5.22;;;;;;;11.34;44.07;98442.16;4419414;32;33826;-64
2023/03/14 05:35:09;;;;;;;7.75;3.62;;;;;;;11.04;44.82;98439.81;4419859;32;33457;-66
2023/03/14 05:37:37;;;;;;;5.65;3.40;;;;;;;10.78;45.54;98432.47;4415036;32;33391;-66
2023/03/14 05:40:08;;;;;;;6.72;5.00;;;;;;;10.32;46.02;98434.19;4419608;32;35136;-65
2023/03/14 05:42:36;;;;;;;8.07;3.67;;;;;;;9.96;47.17;98428.59;4418235;32;33203;-65
2023/03/14 05:45:05;;;;;;;5.55;3.85;;;;;;;10.52;46.05;98429.63;4417997;32;33347;-66
2023/03/14 05:47:33;;;;;;;7.43;4.20;;;;;;;10.54;45.60;98429.50;4415014;32;33916;-66
2023/03/14 05:50:01;;;;;;;6.65;4.10;;;;;;;10.49;45.44;98438.78;4417460;32;34201;-66
2023/03/14 05:52:29;;;;;;;9.23;4.97;;;;;;;10.18;46.09;98438.16;4419092;32;34558;-64
2023/03/14 05:54:57;;;;;;;7.05;3.92;;;;;;;10.27;46.47;98436.44;4421224;32;33522;-65
2023/03/14 05:57:25;;;;;;;8.30;4.62;;;;;;;10.10;46.53;98438.00;4420183;32;33850;-66
2023/03/14 05:59:55;;;;;;;4.28;3.08;;;;;;;10.85;44.73;98436.25;4419738;32;33664;-63
2023/03/14 06:02:24;;;;;;;7.07;4.00;;;;;;;10.73;45.34;98435.59;4414315;32;34892;-65
2023/03/14 06:04:52;;;;;;;11.18;5.40;;;;;;;10.33;46.07;98430.53;4416001;32;33236;-66
2023/03/14 06:07:20;;;;;;;7.28;5.10;;;;;;;10.54;45.33;98437.50;4417193;32;33267;-65
2023/03/14 06:09:47;;;;;;;10.63;5.12;;;;;;;10.44;46.06;98437.56;4408724;32;33899;-64
2023/03/14 06:12:17;;;;;;;9.27;3.92;;;;;;;10.72;44.77;98423.22;4416113;32;33889;-64
2023/03/14 06:14:45;;;;;;;11.85;5.05;;;;;;;10.70;45.22;98419.00;4417373;32;33170;-64
2023/03/14 06:17:12;;;;;;;7.97;4.68;;;;;;;10.53;45.71;98428.66;4417158;32;33874;-67
2023/03/14 06:19:40;;;;;;;7.20;4.53;;;;;;;10.69;45.61;98422.69;4420377;32;34068;-64
2023/03/14 06:22:10;;;;;;;6.87;4.18;;;;;;;11.02;44.55;98417.72;4418456;32;32381;-66
2023/03/14 06:24:38;;;;;;;9.40;4.43;;;;;;;11.27;43.82;98408.09;4418811;32;34293;-62
2023/03/14 06:27:06;;;;;;;11.02;4.97;;;;;;;10.87;44.69;98410.16;4415127;32;33740;-67
2023/03/14 06:29:33;;;;;;;6.18;3.70;;;;;;;10.48;45.19;98413.03;4419991;32;34895;-65
2023/03/14 06:32:02;;;;;;;7.65;4.72;;;;;;;10.55;45.94;98418.63;4418846;32;34203;-67
2023/03/14 06:34:30;;;;;;;6.75;4.30;;;;;;;10.93;44.88;98416.75;4416729;32;33086;-68
2023/03/14 06:36:57;;;;;;;9.73;4.10;;;;;;;11.88;43.15;98413.56;4416381;32;34980;-65
2023/03/14 06:39:25;;;;;;;7.82;5.10;;;;;;;12.06;42.55;98416.19;4419085;32;34031;-67
2023/03/14 06:41:54;;;;;;;6.05;4.18;;;;;;;11.42;43.97;98415.44;4417695;32;32478;-66
2023/03/14 06:44:22;;;;;;;8.38;5.10;;;;;;;12.19;42.05;98421.16;4416852;32;34744;-69
2023/03/14 06:46:49;;;;;;;8.80;4.82;;;;;;;11.96;42.29;98423.50;4416946;32;35468;-67
2023/03/14 06:49:18;;;;;;;8.98;7.15;;;;;;;12.30;41.63;98422.75;4418668;32;35204;-68
2023/03/14 06:51:46;;;;;;;7.55;4.62;;;;;;;12.03;42.46;98427.25;4413854;32;34767;-67
2023/03/14 06:54:13;;;;;;;7.70;4.80;;;;;;;12.69;41.06;98430.34;4408627;32;34474;-67
2023/03/14 06:56:41;;;;;;;6.55;4.40;;;;;;;12.87;40.59;98428.41;4419576;32;34841;-68
2023/03/14 06:59:09;;;;;;;7.97;5.05;;;;;;;12.74;40.62;98431.53;4420306;32;35803;-68
2023/03/14 07:01:37;;;;;;;9.88;5.57;;;;;;;13.01;40.14;98437.72;4417801;32;33825;-68
2023/03/14 07:04:04;;;;;;;7.93;5.15;;;;;;;13.41;39.73;98437.00;4401952;32;34217;-68
2023/03/14 07:06:33;;;;;;;9.45;6.20;;;;;;;13.46;39.68;98432.00;4417812;32;34698;-70
2023/03/14 07:09:01;;;;;;;9.60;5.70;;;;;;;13.55;39.40;98429.31;4419880;32;33975;-68
2023/03/14 07:11:49;;;;;;;10.23;3.80;;;;;;;13.63;39.49;98432.84;4416295;32;33866;-69
2023/03/14 07:14:16;;;;;;;9.15;4.95;;;;;;;13.02;40.78;98428.66;4419524;32;33420;-69
2023/03/14 07:16:45;;;;;;;10.88;4.93;;;;;;;13.63;39.75;98434.72;4418212;32;34018;-68
2023/03/14 07:19:13;;;;;;;6.65;4.68;;;;;;;14.23;38.49;98430.87;4417307;32;33673;-69
2023/03/14 07:21:40;;;;;;;8.70;5.70;;;;;;;14.58;38.04;98433.19;4417885;32;32821;-68
2023/03/14 07:24:09;;;;;;;8.00;4.55;;;;;;;13.32;39.91;98445.22;4417274;32;33757;-68
2023/03/14 07:26:36;;;;;;;9.55;4.65;;;;;;;14.27;38.43;98435.72;4421817;32;35022;-68
2023/03/14 07:29:04;;;;;;;12.20;5.03;;;;;;;13.77;39.37;98428.66;4422029;32;35172;-69
2023/03/14 07:31:32;;;;;;;13.43;8.23;;;;;;;14.10;38.78;98432.22;4418020;32;33792;-68
2023/03/14 07:34:00;;;;;;;15.98;7.65;;;;;;;13.95;39.11;98423.13;4420112;32;33359;-68
2023/03/14 07:36:28;;;;;;;14.90;7.65;;;;;;;14.48;38.49;98418.19;4420947;32;33257;-68
2023/03/14 07:38:55;;;;;;;9.70;4.18;;;;;;;14.16;39.05;98415.41;4421637;32;33711;-69
2023/03/14 07:41:24;;;;;;;10.80;7.43;;;;;;;14.45;38.35;98408.63;4420094;32;32979;-68
2023/03/14 07:43:58;;;;;;;10.30;6.65;;;;;;;14.45;38.39;98408.63;4421262;32;34116;-69
2023/03/14 07:46:26;;;;;;;10.95;7.22;;;;;;;14.84;37.55;98403.31;4420042;32;34891;-68
2023/03/14 07:48:53;;;;;;;11.00;6.37;;;;;;;14.67;37.75;98405.22;4418872;32;33984;-68
2023/03/14 07:51:20;;;;;;;13.43;8.52;;;;;;;14.87;37.60;98399.44;4421021;32;33640;-69
2023/03/14 07:53:48;;;;;;;9.25;5.50;;;;;;;13.44;40.39;98414.34;4420691;32;33509;-70
2023/03/14 07:56:16;;;;;;;8.18;4.60;;;;;;;14.25;39.20;98405.44;4418916;32;34011;-68
2023/03/14 07:58:43;;;;;;;12.77;6.65;;;;;;;15.02;37.94;98399.50;4418780;32;34203;-67
2023/03/14 08:01:11;;;;;;;8.80;5.72;;;;;;;15.36;37.40;98394.59;4421219;32;33832;-70
2023/03/14 08:03:39;;;;;;;11.48;5.22;;;;;;;15.47;36.48;98390.66;4421606;32;33179;-67
2023/03/14 08:06:06;;;;;;;11.80;6.43;;;;;;;14.77;38.48;98378.09;4418111;32;32757;-66
2023/03/14 08:08:34;;;;;;;13.23;8.48;;;;;;;15.09;37.55;98370.87;4409356;32;32857;-69
2023/03/14 08:11:08;;;;;;;13.10;8.40;;;;;;;15.30;37.11;98375.63;4419084;32;35221;-67
2023/03/14 08:13:36;;;;;;;12.43;7.15;;;;;;;16.30;35.81;98372.78;4414896;32;34421;-65
2023/03/14 08:16:04;;;;;;;12.50;7.07;;;;;;;16.01;35.96;98362.78;4416769;32;35030;-67
2023/03/14 08:18:32;;;;;;;12.57;7.75;;;;;;;16.78;34.94;98359.78;4416217;32;33930;-70
2023/03/14 08:20:59;;;;;;;9.18;6.22;;;;;;;15.98;35.67;98363.16;4421061;32;33826;-68
2023/03/14 08:23:27;;;;;;;12.70;7.65;;;;;;;16.83;34.81;98370.03;4422035;32;34581;-66
2023/03/14 08:25:55;;;;;;;11.63;7.00;;;;;;;16.65;35.03;98373.09;4420207;32;32254;-66
2023/03/14 08:28:22;;;;;;;13.88;8.10;;;;;;;17.35;34.26;98361.72;4412980;32;34049;-67
2023/03/14 08:30:50;;;;;;;15.35;8.20;;;;;;;17.23;34.35;98366.78;4418744;32;33909;-68
2023/03/14 08:33:18;;;;;;;9.70;5.22;;;;;;;17.19;34.49;98359.25;4419799;32;33362;-68
2023/03/14 08:35:45;;;;;;;11.27;6.95;;;;;;;17.38;33.85;98355.09;4413386;32;35239;-68
2023/03/14 08:38:14;;;;;;;12.88;6.40;;;;;;;17.56;33.78;98363.59;4414791;32;34894;-69
2023/03/14 08:40:41;;;;;;;8.93;6.20;;;;;;;17.21;33.95;98355.34;4413400;32;33882;-67
2023/03/14 08:43:09;;;;;;;9.98;5.20;;;;;;;17.05;34.41;98360.13;4417910;32;33631;-73
2023/03/14 08:45:37;;;;;;;9.82;5.00;;;;;;;16.80;34.39;98348.81;4418985;32;33806;-68
2023/03/14 08:48:04;;;;;;;9.57;5.25;;;;;;;17.58;33.96;98350.69;4421094;32;35181;-71
2023/03/14 08:50:32;;;;;;;8.27;3.87;;;;;;;17.36;34.34;98339.03;4419014;32;32339;-68
2023/03/14 08:53:00;;;;;;;9.32;4.47;;;;;;;17.90;33.17;98335.81;4418564;32;34201;-63
2023/03/14 08:55:27;;;;;;;6.50;4.00;;;;;;;17.49;33.41;98332.94;4418246;32;33390;-65
2023/03/14 08:57:55;;;;;;;10.20;4.32;;;;;;;16.91;34.54;98314.00;4423973;32;34191;-67
2023/03/14 09:00:23;;;;;;;8.57;4.50;;;;;;;17.26;34.50;98308.78;4415360;32;33889;-64
2023/03/14 09:02:51;;;;;;;11.07;5.12;;;;;;;17.55;33.93;98305.09;4409452;32;33274;-63
2023/03/14 09:05:18;;;;;;;9.65;4.55;;;;;;;17.27;34.09;98309.59;4423975;32;34084;-64
2023/03/14 09:07:46;;;;;;;8.82;5.30;;;;;;;17.52;33.56;98304.66;4419356;32;34437;-65
2023/03/14 09:10:13;;;;;;;9.80;4.57;;;;;;;17.88;33.04;98302.72;4421647;32;34134;-64
2023/03/14 09:12:41;;;;;;;10.35;4.87;;;;;;;18.45;32.57;98294.53;4418026;32;33880;-66
2023/03/14 09:15:09;;;;;;;8.55;5.15;;;;;;;18.07;32.53;98300.34;4419276;32;33477;-65
2023/03/14 09:17:37;;;;;;;9.18;5.22;;;;;;;18.10;32.69;98303.47;4415670;32;34653;-64
2023/03/14 09:20:06;;;;;;;9.60;5.37;;;;;;;18.19;33.13;98293.34;4420797;32;32582;-66
2023/03/14 09:22:35;;;;;;;10.25;5.93;;;;;;;18.16;32.87;98302.69;4420455;32;32524;-65
2023/03/14 09:25:04;;;;;;;11.35;5.87;;;;;;;18.19;33.79;98284.38;4419012;32;33531;-63
2023/03/14 09:27:31;;;;;;;11.85;5.35;;;;;;;18.31;33.10;98280.91;4419406;32;35300;-66
2023/03/14 09:29:59;;;;;;;9.15;5.28;;;;;;;19.14;31.78;98274.62;4415909;32;33661;-64
2023/03/14 09:32:26;;;;;;;8.50;5.05;;;;;;;19.59;30.93;98278.44;4419421;32;33237;-64
2023/03/14 09:34:54;;;;;;;8.80;5.30;;;;;;;20.19;30.66;98268.38;4422883;32;34037;-64
2023/03/14 09:37:21;;;;;;;9.82;4.40;;;;;;;19.72;31.05;98256.75;4419463;32;34055;-64
2023/03/14 09:39:49;;;;;;;8.18;4.20;;;;;;;18.81;32.44;98259.06;4415615;32;35075;-65
2023/03/14 09:42:19;;;;;;;8.95;4.25;;;;;;;19.34;31.91;98244.81;4422105;32;33544;-65
2023/03/14 09:44:59;;;;;;;7.82;3.62;;;;;;;18.65;32.99;98246.72;4405580;32;32864;-67
2023/03/14 09:47:26;;;;;;;4.75;1.90;;;;;;;18.91;32.64;98240.56;4421612;32;33710;-66
2023/03/14 09:49:54;;;;;;;5.60;1.90;;;;;;;18.65;33.02;98232.31;4398323;32;33781;-63
2023/03/14 09:52:26;;;;;;;4.12;1.75;;;;;;;18.17;33.42;98244.00;4418478;32;33472;-62
2023/03/14 09:55:04;;;;;;;6.00;1.83;;;;;;;18.37;33.13;98236.78;4406709;32;34767;-63
2023/03/14 09:57:33;;;;;;;5.40;1.70;;;;;;;18.62;32.83;98226.28;4426464;32;34024;-66
2023/03/14 10:00:21;;;;;;;5.78;1.65;;;;;;;18.92;32.30;98223.25;4415167;32;33693;-65
2023/03/14 10:02:56;;;;;;;5.78;1.83;;;;;;;19.35;31.74;98217.47;4418713;32;33962;-64
2023/03/14 10:05:26;;;;;;;7.18;1.90;;;;;;;19.09;31.78;98204.72;4417726;32;33424;-63
2023/03/14 10:07:54;;;;;;;3.70;1.85;;;;;;;18.80;31.32;98214.03;4421710;32;33976;-66
2023/03/14 10:10:24;;;;;;;6.65;1.98;;;;;;;19.21;30.81;98199.50;4419875;32;33755;-62
2023/03/14 10:13:19;;;;;;;7.80;1.90;;;;;;;19.55;30.81;98212.88;4416838;32;33267;-65
2023/03/14 10:16:07;;;;;;;4.45;1.52;;;;;;;19.69;30.50;98202.87;4418728;32;33532;-63
2023/03/14 10:18:35;;;;;;;7.93;2.00;;;;;;;19.34;30.76;98194.09;4421627;32;34134;-66
2023/03/14 10:21:02;;;;;;;5.62;1.50;;;;;;;19.67;30.89;98206.84;4421323;32;34923;-63
2023/03/14 10:23:32;;;;;;;8.38;1.62;;;;;;;19.18;30.95;98189.09;4418387;32;33226;-64
2023/03/14 10:26:25;;;;;;;4.37;1.52;;;;;;;18.97;31.26;98217.19;4418201;32;33423;-63
2023/03/14 10:29:08;;;;;;;6.03;1.77;;;;;;;19.18;31.37;98195.34;4409582;32;33946;-65
2023/03/14 10:31:54;;;;;;;5.18;2.03;;;;;;;19.69;30.91;98192.00;4421925;32;34612;-64
2023/03/14 10:34:31;;;;;;;7.03;1.92;;;;;;;19.76;30.64;98202.87;4420301;32;34165;-64
2023/03/14 10:37:06;;;;;;;5.72;1.55;;;;;;;19.74;30.59;98205.81;4413840;32;34790;-65
2023/03/14 10:39:51;;;;;;;5.45;1.60;;;;;;;19.27;31.22;98204.13;4422845;32;35072;-65
2023/03/14 10:42:21;;;;;;;4.07;1.80;;;;;;;19.50;31.20;98209.13;4420298;32;33977;-64
2023/03/14 10:44:55;;;;;;;5.72;1.92;;;;;;;19.51;31.25;98203.47;4421152;32;33863;-65
2023/03/14 10:47:24;;;;;;;4.43;2.17;;;;;;;19.26;31.50;98197.00;4421115;32;33473;-62
2023/03/14 10:49:52;;;;;;;3.67;1.77;;;;;;;19.25;31.48;98188.03;4400761;32;35383;-65
2023/03/14 10:52:28;;;;;;;5.35;1.85;;;;;;;19.15;31.65;98190.31;4417914;32;34705;-68
2023/03/14 10:55:15;;;;;;;5.65;1.92;;;;;;;19.34;31.63;98183.25;4418950;32;31608;-68
2023/03/14 10:57:44;;;;;;;5.18;1.75;;;;;;;19.89;30.53;98170.25;4420030;32;33971;-68
2023/03/14 11:00:18;;;;;;;4.32;1.67;;;;;;;20.00;30.54;98153.31;4418105;32;33742;-67
2023/03/14 11:02:48;;;;;;;5.97;1.27;;;;;;;20.16;30.58;98153.88;4408812;32;32743;-68
2023/03/14 11:05:25;;;;;;;3.45;1.25;;;;;;;20.04;30.56;98164.59;4410928;32;33578;-69
2023/03/14 11:07:56;;;;;;;5.50;1.77;;;;;;;20.12;30.33;98153.47;4411364;32;33925;-68
2023/03/14 11:10:32;;;;;;;6.65;1.77;;;;;;;20.14;30.65;98145.94;4399084;32;34064;-68
2023/03/14 11:13:15;;;;;;;4.37;1.67;;;;;;;19.86;30.48;98129.12;4415369;32;33773;-69
2023/03/14 11:15:48;;;;;;;3.50;1.48;;;;;;;20.33;30.46;98143.38;4411386;32;33440;-69
2023/03/14 11:18:23;;;;;;;5.78;1.83;;;;;;;20.23;30.11;98133.78;4415576;32;32580;-69
2023/03/14 11:21:02;;;;;;;5.93;1.60;;;;;;;20.50;29.79;98122.78;4415859;32;35011;-67
2023/03/14 11:24:01;;;;;;;5.62;1.52;;;;;;;20.07;30.21;98115.28;4398898;32;33782;-67
2023/03/14 11:26:50;;;;;;;6.53;1.55;;;;;;;19.60;30.64;98113.72;4410960;32;33284;-68
2023/03/14 11:29:38;;;;;;;5.15;1.50;;;;;;;20.09;30.74;98107.72;4420053;32;35039;-68
2023/03/14 11:32:14;;;;;;;6.68;1.62;;;;;;;20.41;30.20;98110.50;4418031;32;33885;-68
2023/03/14 11:34:52;;;;;;;4.57;1.87;;;;;;;19.95;30.52;98093.38;4400469;32;34297;-67
2023/03/14 11:37:26;;;;;;;6.07;2.15;;;;;;;19.92;30.78;98103.84;4407329;32;33064;-67
2023/03/14 11:40:00;;;;;;;3.22;1.55;;;;;;;20.00;30.73;98103.59;4402169;32;33559;-67
2023/03/14 11:42:28;;;;;;;3.90;1.60;;;;;;;19.73;31.00;98103.69;4415508;32;32683;-67
2023/03/14 11:44:57;;;;;;;4.55;1.67;;;;;;;19.56;30.93;98099.75;4416085;32;33782;-66